Time;durP1;ratioP1;P1;durP2;ratioP2;P2;SDS_P1;SDS_P2;PMS_P1;PMS_P2;Temp;Humidity;BMP_temperature;BMP_pressure;BME280_temperature;BME280_humidity;BME280_pressure;Samples;Min_cycle;Max_cycle;Signal;HPM_P1;HPM_P2
2021/07/17 00:01:25;;;;;;;;;;;22.80;50.00;;;;;;1613875;73;714;-72
2021/07/17 00:03:27;;;;;;;;;;;22.80;50.10;;;;;;1604243;72;1953;-72
2021/07/17 00:05:29;;;;;;;;;;;22.80;50.00;;;;;;1614223;73;762;-73
2021/07/17 00:07:30;;;;;;;;;;;22.70;50.10;;;;;;1609132;72;1179;-73
2021/07/17 00:09:32;;;;;;;;;;;22.70;50.00;;;;;;1613616;73;713;-72
2021/07/17 00:11:34;;;;;;;;;;;22.80;50.00;;;;;;1610306;73;625;-72
2021/07/17 00:13:36;;;;;;;;;;;22.90;50.20;;;;;;1612503;73;704;-73
2021/07/17 00:15:38;;;;;;;;;;;22.70;50.00;;;;;;1606435;72;707;-72
2021/07/17 00:17:40;;;;;;;;;;;22.70;50.00;;;;;;1612374;73;1175;-73
2021/07/17 00:19:42;;;;;;;;;;;22.80;50.00;;;;;;1605675;73;708;-73
2021/07/17 00:21:44;;;;;;;;;;;22.80;50.10;;;;;;1604286;73;785;-72
2021/07/17 00:23:46;;;;;;;;;;;22.80;50.10;;;;;;1604098;73;1977;-72
2021/07/17 00:25:52;;;;;;;;;;;22.80;50.00;;;;;;1606846;72;711;-72
2021/07/17 00:27:52;;;;;;;;;;;22.80;50.00;;;;;;1610172;73;1196;-73
2021/07/17 00:29:54;;;;;;;;;;;22.70;50.00;;;;;;1615988;73;727;-72
2021/07/17 00:31:55;;;;;;;;;;;22.80;50.00;;;;;;1603534;73;633;-73
2021/07/17 00:33:57;;;;;;;;;;;22.80;50.00;;;;;;1608885;72;736;-75
2021/07/17 00:35:59;;;;;;;;;;;22.80;50.00;;;;;;1611563;73;689;-72
2021/07/17 00:38:01;;;;;;;;;;;22.80;50.10;;;;;;1609518;73;1175;-72
2021/07/17 00:40:03;;;;;;;;;;;22.70;50.00;;;;;;1610979;73;707;-73
2021/07/17 00:42:05;;;;;;;;;;;22.80;50.10;;;;;;1618507;73;1943;-72
2021/07/17 00:44:08;;;;;;;;;;;22.80;50.10;;;;;;1608743;72;704;-73
2021/07/17 00:46:09;;;;;;;;;;;22.80;50.10;;;;;;1594080;73;681;-72
2021/07/17 00:48:11;;;;;;;;;;;22.80;50.00;;;;;;1618819;72;1169;-73
2021/07/17 00:50:14;;;;;;;;;;;22.70;50.00;;;;;;1602004;73;754;-73
2021/07/17 00:52:16;;;;;;;;;;;22.80;50.00;;;;;;1607935;73;774;-74
2021/07/17 00:54:19;;;;;;;;;;;22.70;50.10;;;;;;1615667;73;787;-73
2021/07/17 00:56:21;;;;;;;;;;;22.80;50.00;;;;;;1612524;73;786;-73
2021/07/17 00:58:26;;;;;;;;;;;22.80;50.00;;;;;;1603820;73;1149;-72
2021/07/17 01:00:28;;;;;;;;;;;22.80;50.00;;;;;;1609405;73;688;-72
2021/07/17 01:02:31;;;;;;;;;;;22.80;50.10;;;;;;1613328;72;1937;-71
2021/07/17 01:04:32;;;;;;;;;;;22.90;50.20;;;;;;1608554;73;722;-72
2021/07/17 01:06:34;;;;;;;;;;;22.80;50.00;;;;;;1611003;73;723;-72
2021/07/17 01:08:36;;;;;;;;;;;22.70;50.10;;;;;;1613271;73;1148;-71
2021/07/17 01:10:38;;;;;;;;;;;22.70;50.00;;;;;;1607471;72;693;-72
2021/07/17 01:12:40;;;;;;;;;;;22.70;50.10;;;;;;1612483;73;755;-73
2021/07/17 01:14:42;;;;;;;;;;;22.80;50.10;;;;;;1615149;73;604;-72
2021/07/17 01:16:44;;;;;;;;;;;22.80;50.10;;;;;;1602791;73;716;-72
2021/07/17 01:18:45;;;;;;;;;;;22.80;50.10;;;;;;1594567;72;2721;-68
2021/07/17 01:20:47;;;;;;;;;;;22.70;50.00;;;;;;1583873;73;720;-69
2021/07/17 01:22:49;;;;;;;;;;;22.80;50.00;;;;;;1582917;73;1953;-69
2021/07/17 01:24:51;;;;;;;;;;;22.80;50.10;;;;;;1589820;73;693;-69
2021/07/17 01:26:53;;;;;;;;;;;22.80;50.10;;;;;;1580743;73;713;-68
2021/07/17 01:28:55;;;;;;;;;;;22.80;50.00;;;;;;1572975;75;1150;-69
2021/07/17 01:30:57;;;;;;;;;;;22.80;50.10;;;;;;1560552;75;813;-68
2021/07/17 01:32:59;;;;;;;;;;;22.80;50.10;;;;;;1563157;75;760;-68
2021/07/17 01:35:00;;;;;;;;;;;22.80;50.10;;;;;;1563817;74;718;-68
2021/07/17 01:37:02;;;;;;;;;;;22.70;50.10;;;;;;1563913;75;766;-68
2021/07/17 01:39:05;;;;;;;;;;;22.80;50.10;;;;;;1558660;75;1147;-68
2021/07/17 01:41:09;;;;;;;;;;;22.70;50.10;;;;;;1553421;75;706;-69
2021/07/17 01:43:10;;;;;;;;;;;22.80;50.10;;;;;;1563661;75;1930;-68
2021/07/17 01:45:12;;;;;;;;;;;22.80;50.10;;;;;;1564117;74;764;-68
2021/07/17 01:47:14;;;;;;;;;;;22.80;50.10;;;;;;1538703;76;1041;-69
2021/07/17 01:49:16;;;;;;;;;;;22.80;50.10;;;;;;1545125;76;1139;-68
2021/07/17 01:51:18;;;;;;;;;;;22.80;50.10;;;;;;1564002;74;716;-68
2021/07/17 01:53:20;;;;;;;;;;;22.80;50.10;;;;;;1563711;76;726;-68
2021/07/17 01:55:22;;;;;;;;;;;22.80;50.10;;;;;;1560864;75;756;-68
2021/07/17 01:57:24;;;;;;;;;;;22.70;50.10;;;;;;1563928;75;802;-68
2021/07/17 01:59:26;;;;;;;;;;;22.80;50.10;;;;;;1563498;75;1104;-68
2021/07/17 02:01:28;;;;;;;;;;;22.80;50.10;;;;;;1558343;75;909;-69
2021/07/17 02:03:29;;;;;;;;;;;22.80;50.10;;;;;;1563804;74;1934;-68
2021/07/17 02:05:31;;;;;;;;;;;22.80;50.10;;;;;;1563933;75;805;-69
2021/07/17 02:07:33;;;;;;;;;;;22.80;50.20;;;;;;1561556;75;736;-69
2021/07/17 02:09:35;;;;;;;;;;;22.80;50.10;;;;;;1563280;76;1104;-68
2021/07/17 02:11:38;;;;;;;;;;;22.70;50.10;;;;;;1563815;76;749;-68
2021/07/17 02:13:39;;;;;;;;;;;22.80;50.20;;;;;;1539149;76;729;-68
2021/07/17 02:15:42;;;;;;;;;;;22.80;50.10;;;;;;1560035;74;674;-68
2021/07/17 02:17:44;;;;;;;;;;;22.80;50.10;;;;;;1560190;75;780;-68
2021/07/17 02:19:46;;;;;;;;;;;22.80;50.10;;;;;;1563886;75;1101;-69
2021/07/17 02:21:48;;;;;;;;;;;22.70;50.10;;;;;;1563697;75;728;-67
2021/07/17 02:23:50;;;;;;;;;;;22.80;50.10;;;;;;1556561;75;1944;-69
2021/07/17 02:25:52;;;;;;;;;;;22.80;50.10;;;;;;1561610;75;796;-68
2021/07/17 02:27:54;;;;;;;;;;;22.80;50.10;;;;;;1563967;75;781;-68
2021/07/17 02:29:56;;;;;;;;;;;22.80;50.10;;;;;;1563526;76;777;-69
2021/07/17 02:31:58;;;;;;;;;;;22.80;50.10;;;;;;1561737;75;760;-68
2021/07/17 02:34:00;;;;;;;;;;;22.80;50.20;;;;;;1562709;75;766;-66
2021/07/17 02:36:01;;;;;;;;;;;22.80;50.10;;;;;;1551831;75;786;-69
2021/07/17 02:38:03;;;;;;;;;;;22.70;50.10;;;;;;1557957;75;1175;-69
2021/07/17 02:40:06;;;;;;;;;;;22.80;50.20;;;;;;1555327;75;794;-68
2021/07/17 02:42:07;;;;;;;;;;;22.80;50.10;;;;;;1563943;76;764;-69
2021/07/17 02:44:09;;;;;;;;;;;22.80;50.10;;;;;;1562327;74;1958;-68
2021/07/17 02:46:11;;;;;;;;;;;22.80;50.10;;;;;;1562643;75;707;-69
2021/07/17 02:48:13;;;;;;;;;;;22.70;50.10;;;;;;1565314;74;1148;-68
2021/07/17 02:50:15;;;;;;;;;;;22.70;50.10;;;;;;1551595;74;795;-69
2021/07/17 02:52:17;;;;;;;;;;;22.80;50.10;;;;;;1517610;78;771;-69
2021/07/17 02:54:19;;;;;;;;;;;22.80;50.10;;;;;;1541602;76;806;-69
2021/07/17 02:56:21;;;;;;;;;;;22.80;50.10;;;;;;1555244;75;665;-69
2021/07/17 02:58:22;;;;;;;;;;;22.80;50.10;;;;;;1537041;76;1177;-68
2021/07/17 03:00:24;;;;;;;;;;;22.80;50.10;;;;;;1540328;76;717;-69
2021/07/17 03:02:26;;;;;;;;;;;22.80;50.10;;;;;;1558668;75;808;-69
2021/07/17 03:04:28;;;;;;;;;;;22.80;50.20;;;;;;1554635;75;1935;-68
2021/07/17 03:06:30;;;;;;;;;;;22.80;50.10;;;;;;1551600;76;803;-68
2021/07/17 03:08:32;;;;;;;;;;;22.80;50.10;;;;;;1555060;76;1133;-68
2021/07/17 03:10:34;;;;;;;;;;;22.70;50.20;;;;;;1555686;75;770;-68
2021/07/17 03:12:36;;;;;;;;;;;22.70;50.10;;;;;;1550767;76;762;-69
2021/07/17 03:14:38;;;;;;;;;;;22.80;50.10;;;;;;1552066;75;673;-69
2021/07/17 03:16:40;;;;;;;;;;;22.80;50.10;;;;;;1548666;75;799;-69
2021/07/17 03:18:42;;;;;;;;;;;22.70;50.20;;;;;;1555008;75;1160;-69
2021/07/17 03:20:46;;;;;;;;;;;22.80;50.20;;;;;;1551214;76;785;-69
2021/07/17 03:22:47;;;;;;;;;;;22.80;50.10;;;;;;1549980;75;1837;-68
2021/07/17 03:24:50;;;;;;;;;;;22.80;50.20;;;;;;1547041;75;1943;-68
2021/07/17 03:26:51;;;;;;;;;;;22.80;50.10;;;;;;1556165;76;776;-67
2021/07/17 03:28:53;;;;;;;;;;;22.80;50.10;;;;;;1553582;76;1153;-69
2021/07/17 03:30:55;;;;;;;;;;;22.80;50.10;;;;;;1557092;76;701;-68
2021/07/17 03:32:57;;;;;;;;;;;22.70;50.10;;;;;;1553796;75;699;-69
2021/07/17 03:34:59;;;;;;;;;;;22.80;50.10;;;;;;1557854;76;793;-69
2021/07/17 03:37:01;;;;;;;;;;;22.80;50.10;;;;;;1549583;75;706;-69
2021/07/17 03:39:03;;;;;;;;;;;22.70;50.10;;;;;;1553041;76;1126;-68
2021/07/17 03:41:04;;;;;;;;;;;22.80;50.20;;;;;;1551152;75;786;-68
2021/07/17 03:43:06;;;;;;;;;;;22.80;50.20;;;;;;1545676;75;1946;-68
2021/07/17 03:45:08;;;;;;;;;;;22.70;50.10;;;;;;1551271;75;703;-69
2021/07/17 03:47:10;;;;;;;;;;;22.70;50.20;;;;;;1550287;75;792;-68
2021/07/17 03:49:12;;;;;;;;;;;22.70;50.20;;;;;;1547451;75;1130;-67
2021/07/17 03:51:14;;;;;;;;;;;22.80;50.20;;;;;;1543196;75;783;-69
2021/07/17 03:53:16;;;;;;;;;;;22.80;50.20;;;;;;1537970;76;746;-69
2021/07/17 03:55:18;;;;;;;;;;;22.70;50.10;;;;;;1555438;76;790;-68
2021/07/17 03:57:19;;;;;;;;;;;22.70;50.20;;;;;;1551724;75;770;-68
2021/07/17 03:59:21;;;;;;;;;;;22.80;50.20;;;;;;1557406;76;1178;-69
2021/07/17 04:01:23;;;;;;;;;;;22.80;50.20;;;;;;1548617;75;795;-68
2021/07/17 04:03:25;;;;;;;;;;;22.80;50.20;;;;;;1550687;76;1948;-68
2021/07/17 04:05:27;;;;;;;;;;;22.80;50.10;;;;;;1550150;76;643;-68
2021/07/17 04:07:29;;;;;;;;;;;22.80;50.10;;;;;;1555087;76;568;-68
2021/07/17 04:09:31;;;;;;;;;;;22.70;50.10;;;;;;1544939;75;1133;-69
2021/07/17 04:11:33;;;;;;;;;;;22.70;50.10;;;;;;1547537;76;847;-68
2021/07/17 04:13:35;;;;;;;;;;;22.80;50.20;;;;;;1547428;76;735;-68
2021/07/17 04:15:37;;;;;;;;;;;22.80;50.20;;;;;;1550441;75;797;-68
2021/07/17 04:17:39;;;;;;;;;;;22.70;50.10;;;;;;1541587;75;763;-68
2021/07/17 04:19:40;;;;;;;;;;;22.80;50.20;;;;;;1552293;75;1113;-68
2021/07/17 04:21:42;;;;;;;;;;;22.80;50.10;;;;;;1537822;75;857;-67
2021/07/17 04:23:44;;;;;;;;;;;22.70;50.20;;;;;;1557477;75;1938;-68
2021/07/17 04:25:46;;;;;;;;;;;22.70;50.20;;;;;;1562081;75;769;-68
2021/07/17 04:27:48;;;;;;;;;;;22.80;50.10;;;;;;1550341;75;798;-69
2021/07/17 04:29:50;;;;;;;;;;;22.80;50.20;;;;;;1548838;75;1091;-68
2021/07/17 04:31:52;;;;;;;;;;;22.80;50.20;;;;;;1556202;75;802;-68
2021/07/17 04:33:54;;;;;;;;;;;22.80;50.20;;;;;;1554432;75;796;-68
2021/07/17 04:35:56;;;;;;;;;;;22.80;50.20;;;;;;1557064;76;772;-68
2021/07/17 04:37:57;;;;;;;;;;;22.80;50.10;;;;;;1554969;75;1123;-68
2021/07/17 04:39:59;;;;;;;;;;;22.80;50.20;;;;;;1561687;75;797;-69
2021/07/17 04:42:01;;;;;;;;;;;22.80;50.20;;;;;;1560067;75;827;-69
2021/07/17 04:44:03;;;;;;;;;;;22.70;50.10;;;;;;1540385;76;1939;-69
2021/07/17 04:46:05;;;;;;;;;;;22.80;50.10;;;;;;1559910;75;732;-68
2021/07/17 04:48:07;;;;;;;;;;;22.70;50.20;;;;;;1545529;75;1071;-68
2021/07/17 04:50:09;;;;;;;;;;;22.80;50.20;;;;;;1555477;75;782;-69
2021/07/17 04:52:11;;;;;;;;;;;22.80;50.20;;;;;;1554175;75;902;-68
2021/07/17 04:54:13;;;;;;;;;;;22.80;50.20;;;;;;1555244;75;785;-68
2021/07/17 04:56:15;;;;;;;;;;;22.80;50.10;;;;;;1556041;75;795;-69
2021/07/17 04:58:17;;;;;;;;;;;22.80;50.20;;;;;;1539571;76;1181;-68
2021/07/17 05:00:19;;;;;;;;;;;22.70;50.10;;;;;;1563888;75;739;-68
2021/07/17 05:02:21;;;;;;;;;;;22.70;50.20;;;;;;1547502;75;766;-68
2021/07/17 05:04:23;;;;;;;;;;;22.80;50.20;;;;;;1551179;75;1946;-68
2021/07/17 05:06:25;;;;;;;;;;;22.80;50.20;;;;;;1550378;75;700;-69
2021/07/17 05:08:26;;;;;;;;;;;22.80;50.20;;;;;;1557457;75;1141;-67
2021/07/17 05:10:28;;;;;;;;;;;22.70;50.10;;;;;;1555793;75;753;-68
2021/07/17 05:12:30;;;;;;;;;;;22.80;50.20;;;;;;1546675;75;729;-68
2021/07/17 05:14:32;;;;;;;;;;;22.80;50.10;;;;;;1557263;75;797;-68
2021/07/17 05:16:34;;;;;;;;;;;22.80;50.20;;;;;;1554443;76;992;-68
2021/07/17 05:18:36;;;;;;;;;;;22.80;50.20;;;;;;1554673;76;1104;-69
2021/07/17 05:20:38;;;;;;;;;;;22.80;50.10;;;;;;1555908;75;766;-68
2021/07/17 05:22:40;;;;;;;;;;;22.70;50.20;;;;;;1541969;75;702;-68
2021/07/17 05:24:43;;;;;;;;;;;22.80;50.10;;;;;;1551514;75;1934;-68
2021/07/17 05:26:45;;;;;;;;;;;22.70;50.10;;;;;;1555498;75;822;-69
2021/07/17 05:28:47;;;;;;;;;;;22.80;50.10;;;;;;1557383;76;1129;-69
2021/07/17 05:30:49;;;;;;;;;;;22.80;50.20;;;;;;1558082;75;753;-69
2021/07/17 05:32:51;;;;;;;;;;;22.70;50.20;;;;;;1556046;75;693;-68
2021/07/17 05:34:53;;;;;;;;;;;22.80;50.20;;;;;;1551329;75;776;-68
2021/07/17 05:36:55;;;;;;;;;;;22.80;50.20;;;;;;1557917;75;937;-69
2021/07/17 05:38:57;;;;;;;;;;;22.70;50.10;;;;;;1557186;75;1178;-69
2021/07/17 05:40:58;;;;;;;;;;;22.80;50.20;;;;;;1558100;76;800;-68
2021/07/17 05:43:00;;;;;;;;;;;22.80;50.20;;;;;;1559049;75;713;-68
2021/07/17 05:45:02;;;;;;;;;;;22.70;50.20;;;;;;1555326;75;1935;-68
2021/07/17 05:47:04;;;;;;;;;;;22.80;50.20;;;;;;1560692;75;804;-68
2021/07/17 05:49:06;;;;;;;;;;;22.80;50.10;;;;;;1561649;75;1143;-69
2021/07/17 05:51:08;;;;;;;;;;;22.70;50.20;;;;;;1560042;75;760;-68
2021/07/17 05:53:10;;;;;;;;;;;22.80;50.10;;;;;;1560373;75;658;-69
2021/07/17 05:55:12;;;;;;;;;;;22.80;50.10;;;;;;1549047;75;678;-68
2021/07/17 05:57:14;;;;;;;;;;;22.80;50.20;;;;;;1557972;75;783;-69
2021/07/17 05:59:16;;;;;;;;;;;22.80;50.20;;;;;;1543693;75;1166;-69
2021/07/17 06:01:18;;;;;;;;;;;22.70;50.20;;;;;;1539133;75;652;-69
2021/07/17 06:03:20;;;;;;;;;;;22.80;50.20;;;;;;1544882;75;820;-68
2021/07/17 06:05:21;;;;;;;;;;;22.80;50.20;;;;;;1555026;75;1939;-69
2021/07/17 06:07:23;;;;;;;;;;;22.70;50.20;;;;;;1559893;76;799;-68
2021/07/17 06:09:25;;;;;;;;;;;22.70;50.20;;;;;;1545143;75;1120;-68
2021/07/17 06:11:27;;;;;;;;;;;22.80;50.10;;;;;;1545881;75;738;-68
2021/07/17 06:13:29;;;;;;;;;;;22.80;50.10;;;;;;1557968;75;734;-68
2021/07/17 06:15:31;;;;;;;;;;;22.70;50.10;;;;;;1556362;75;763;-69
2021/07/17 06:17:33;;;;;;;;;;;22.70;50.10;;;;;;1554237;76;779;-68
2021/07/17 06:19:35;;;;;;;;;;;22.70;50.20;;;;;;1560558;75;1132;-68
2021/07/17 06:21:36;;;;;;;;;;;22.80;50.20;;;;;;1547817;75;803;-66
2021/07/17 06:23:38;;;;;;;;;;;22.80;50.20;;;;;;1550667;75;719;-68
2021/07/17 06:25:40;;;;;;;;;;;22.80;50.20;;;;;;1557443;75;1938;-68
2021/07/17 06:27:42;;;;;;;;;;;22.70;50.20;;;;;;1555807;75;746;-68
2021/07/17 06:29:44;;;;;;;;;;;22.60;50.10;;;;;;1560326;76;1101;-69
2021/07/17 06:31:46;;;;;;;;;;;22.80;50.20;;;;;;1556345;75;661;-66
2021/07/17 06:33:48;;;;;;;;;;;22.80;50.20;;;;;;1557710;75;732;-69
2021/07/17 06:35:50;;;;;;;;;;;22.80;50.20;;;;;;1558199;75;722;-68
2021/07/17 06:37:52;;;;;;;;;;;22.70;50.20;;;;;;1561095;75;712;-68
2021/07/17 06:39:53;;;;;;;;;;;22.80;50.20;;;;;;1557591;75;1236;-68
2021/07/17 06:41:55;;;;;;;;;;;22.80;50.20;;;;;;1556300;75;802;-69
2021/07/17 06:43:57;;;;;;;;;;;22.80;50.20;;;;;;1555896;76;804;-69
2021/07/17 06:45:59;;;;;;;;;;;22.80;50.20;;;;;;1558949;75;1901;-69
2021/07/17 06:48:01;;;;;;;;;;;22.80;50.10;;;;;;1549321;75;1138;-68
2021/07/17 06:50:03;;;;;;;;;;;22.80;50.10;;;;;;1560404;75;722;-68
2021/07/17 06:52:05;;;;;;;;;;;22.80;50.10;;;;;;1558768;75;788;-68
2021/07/17 06:54:07;;;;;;;;;;;22.80;50.20;;;;;;1555688;75;768;-68
2021/07/17 06:56:09;;;;;;;;;;;22.80;50.10;;;;;;1558222;75;817;-68
2021/07/17 06:58:11;;;;;;;;;;;22.80;50.20;;;;;;1560872;75;1137;-68
2021/07/17 07:00:14;;;;;;;;;;;22.80;50.20;;;;;;1554356;75;800;-68
2021/07/17 07:02:16;;;;;;;;;;;22.70;50.20;;;;;;1551351;75;1034;-69
2021/07/17 07:04:18;;;;;;;;;;;22.80;50.20;;;;;;1546651;75;794;-68
2021/07/17 07:06:20;;;;;;;;;;;22.80;50.20;;;;;;1554140;75;1925;-68
2021/07/17 07:08:22;;;;;;;;;;;22.70;50.20;;;;;;1555513;75;1132;-68
2021/07/17 07:10:24;;;;;;;;;;;22.80;50.20;;;;;;1555564;75;692;-69
2021/07/17 07:12:25;;;;;;;;;;;22.80;50.20;;;;;;1560677;76;726;-68
2021/07/17 07:14:27;;;;;;;;;;;22.80;50.10;;;;;;1548098;75;759;-67
2021/07/17 07:16:29;;;;;;;;;;;22.80;50.20;;;;;;1556333;75;667;-69
2021/07/17 07:18:31;;;;;;;;;;;22.80;50.20;;;;;;1549615;74;2091;-75
2021/07/17 07:20:33;;;;;;;;;;;22.80;50.20;;;;;;1574624;75;679;-72
2021/07/17 07:22:35;;;;;;;;;;;22.70;50.20;;;;;;1581185;75;775;-72
2021/07/17 07:24:37;;;;;;;;;;;22.80;50.20;;;;;;1576914;75;1941;-72
2021/07/17 07:26:39;;;;;;;;;;;22.80;50.20;;;;;;1566569;75;807;-72
2021/07/17 07:28:41;;;;;;;;;;;22.70;50.20;;;;;;1579976;75;1208;-72
2021/07/17 07:30:43;;;;;;;;;;;22.80;50.20;;;;;;1576031;75;682;-72
2021/07/17 07:32:45;;;;;;;;;;;22.80;50.20;;;;;;1575815;75;780;-73
2021/07/17 07:34:46;;;;;;;;;;;22.80;50.20;;;;;;1574312;75;645;-73
2021/07/17 07:36:49;;;;;;;;;;;22.70;50.20;;;;;;1574465;75;750;-75
2021/07/17 07:38:51;;;;;;;;;;;22.80;50.10;;;;;;1575842;75;1197;-74
2021/07/17 07:40:52;;;;;;;;;;;22.80;50.20;;;;;;1575868;75;778;-73
2021/07/17 07:42:54;;;;;;;;;;;22.80;50.10;;;;;;1575810;75;799;-73
2021/07/17 07:44:56;;;;;;;;;;;22.80;50.20;;;;;;1574500;75;1938;-73
2021/07/17 07:46:58;;;;;;;;;;;22.70;50.20;;;;;;1575850;75;777;-73
2021/07/17 07:49:00;;;;;;;;;;;22.80;50.20;;;;;;1575943;75;1130;-72
2021/07/17 07:51:02;;;;;;;;;;;22.80;50.20;;;;;;1575903;75;714;-73
2021/07/17 07:53:04;;;;;;;;;;;22.80;50.20;;;;;;1574417;75;670;-73
2021/07/17 07:55:06;;;;;;;;;;;22.80;50.20;;;;;;1566584;75;778;-74
2021/07/17 07:57:08;;;;;;;;;;;22.80;50.20;;;;;;1574368;75;846;-73
2021/07/17 07:59:10;;;;;;;;;;;22.80;50.10;;;;;;1575898;75;1144;-73
2021/07/17 08:01:12;;;;;;;;;;;22.80;50.20;;;;;;1575938;75;760;-73
2021/07/17 08:03:14;;;;;;;;;;;22.70;50.20;;;;;;1570929;75;747;-73
2021/07/17 08:05:16;;;;;;;;;;;22.70;50.20;;;;;;1562641;75;1937;-72
2021/07/17 08:07:17;;;;;;;;;;;22.80;50.20;;;;;;1575895;75;737;-73
2021/07/17 08:09:19;;;;;;;;;;;22.80;50.20;;;;;;1575874;75;1172;-73
2021/07/17 08:11:21;;;;;;;;;;;22.80;50.20;;;;;;1575804;75;786;-72
2021/07/17 08:13:23;;;;;;;;;;;22.70;50.20;;;;;;1567194;75;730;-72
2021/07/17 08:15:25;;;;;;;;;;;22.70;50.20;;;;;;1575956;75;716;-74
2021/07/17 08:17:27;;;;;;;;;;;22.80;50.20;;;;;;1575857;75;741;-72
2021/07/17 08:19:29;;;;;;;;;;;22.80;50.20;;;;;;1582193;74;1252;-72
2021/07/17 08:21:31;;;;;;;;;;;22.80;50.20;;;;;;1601171;72;801;-72
2021/07/17 08:23:33;;;;;;;;;;;22.80;50.20;;;;;;1594444;72;805;-72
2021/07/17 08:25:35;;;;;;;;;;;22.80;50.20;;;;;;1605371;74;1948;-72
2021/07/17 08:27:37;;;;;;;;;;;22.70;50.20;;;;;;1605317;74;723;-72
2021/07/17 08:29:39;;;;;;;;;;;22.70;50.20;;;;;;1601577;72;1192;-73
2021/07/17 08:31:41;;;;;;;;;;;22.80;50.20;;;;;;1603900;72;715;-72
2021/07/17 08:33:42;;;;;;;;;;;22.60;50.00;;;;;;1600178;74;710;-73
2021/07/17 08:35:45;;;;;;;;;;;22.80;50.20;;;;;;1603781;72;730;-74
2021/07/17 08:37:47;;;;;;;;;;;22.70;50.20;;;;;;1605216;72;731;-73
2021/07/17 08:39:49;;;;;;;;;;;22.80;50.20;;;;;;1605273;74;1139;-73
2021/07/17 08:41:51;;;;;;;;;;;22.70;50.10;;;;;;1603230;72;812;-72
2021/07/17 08:43:56;;;;;;;;;;;22.80;50.20;;;;;;1605263;74;777;-72
2021/07/17 08:45:58;;;;;;;;;;;22.80;50.20;;;;;;1600872;72;1915;-72
2021/07/17 08:47:59;;;;;;;;;;;22.80;50.10;;;;;;1605284;74;694;-74
2021/07/17 08:50:02;;;;;;;;;;;22.80;50.10;;;;;;1608003;72;1238;-75
2021/07/17 08:52:04;;;;;;;;;;;22.80;50.20;;;;;;1604604;72;734;-74
2021/07/17 08:54:06;;;;;;;;;;;22.70;50.20;;;;;;1605250;72;721;-73
2021/07/17 08:56:08;;;;;;;;;;;22.70;50.20;;;;;;1604863;72;768;-74
2021/07/17 08:58:10;;;;;;;;;;;22.70;50.20;;;;;;1605259;72;792;-71
2021/07/17 09:00:18;;;;;;;;;;;22.70;50.20;;;;;;1595590;72;1092;-73
2021/07/17 09:02:20;;;;;;;;;;;22.80;50.20;;;;;;1595893;72;747;-72
2021/07/17 09:04:25;;;;;;;;;;;22.80;50.20;;;;;;1605248;73;768;-73
2021/07/17 09:06:27;;;;;;;;;;;22.80;50.20;;;;;;1593774;72;1906;-72
2021/07/17 09:08:29;;;;;;;;;;;22.80;50.20;;;;;;1600459;72;1184;-73
2021/07/17 09:10:37;;;;;;;;;;;22.70;50.20;;;;;;1603935;72;716;-74
2021/07/17 09:12:39;;;;;;;;;;;22.80;50.20;;;;;;1601611;72;793;-73
2021/07/17 09:14:44;;;;;;;;;;;22.70;50.20;;;;;;1605319;72;784;-73
2021/07/17 09:16:45;;;;;;;;;;;22.80;50.20;;;;;;1605141;74;1661;-75
2021/07/17 09:18:53;;;;;;;;;;;22.70;50.20;;;;;;1603754;74;1142;-72
2021/07/17 09:20:56;;;;;;;;;;;22.70;50.20;;;;;;1604544;72;790;-72
2021/07/17 09:22:58;;;;;;;;;;;22.80;50.20;;;;;;1605129;73;772;-73
2021/07/17 09:25:07;;;;;;;;;;;22.70;50.20;;;;;;1604594;72;807;-72
2021/07/17 09:27:09;;;;;;;;;;;22.70;50.20;;;;;;1597863;72;1932;-74
2021/07/17 09:29:11;;;;;;;;;;;22.80;50.20;;;;;;1606851;72;1254;-72
2021/07/17 09:31:13;;;;;;;;;;;22.70;50.20;;;;;;1555094;76;734;-72
2021/07/17 09:33:15;;;;;;;;;;;22.80;50.20;;;;;;1567123;76;746;-74
2021/07/17 09:35:20;;;;;;;;;;;22.70;50.20;;;;;;1567969;76;1000;-73
2021/07/17 09:37:24;;;;;;;;;;;22.80;50.20;;;;;;1548026;76;1706;-73
2021/07/17 09:39:31;;;;;;;;;;;22.70;50.20;;;;;;1557941;76;1104;-73
2021/07/17 09:41:32;;;;;;;;;;;22.80;50.20;;;;;;1568044;76;761;-72
2021/07/17 09:43:46;;;;;;;;;;;22.80;50.20;;;;;;1567888;76;788;-70
2021/07/17 09:45:45;;;;;;;;;;;22.70;50.20;;;;;;1567601;75;1941;-73
2021/07/17 09:47:47;;;;;;;;;;;22.80;50.20;;;;;;1558105;76;781;-74
2021/07/17 09:49:49;;;;;;;;;;;22.70;50.20;;;;;;1568081;76;1133;-74
2021/07/17 09:52:10;;;;;;;;;;;22.70;50.20;;;;;;1567973;76;906;-72
2021/07/17 09:54:12;;;;;;;;;;;22.70;50.20;;;;;;1564397;76;1727;-71
2021/07/17 09:56:15;;;;;;;;;;;22.70;50.20;;;;;;1565126;76;768;-73
2021/07/17 09:58:17;;;;;;;;;;;22.70;50.20;;;;;;1555341;76;1135;-72
2021/07/17 10:00:19;;;;;;;;;;;22.70;50.20;;;;;;1568077;76;767;-72
2021/07/17 10:02:30;;;;;;;;;;;22.70;50.20;;;;;;1567927;76;760;-73
2021/07/17 10:04:32;;;;;;;;;;;22.70;50.20;;;;;;1567448;76;792;-75
2021/07/17 10:06:35;;;;;;;;;;;22.80;50.20;;;;;;1556748;75;1967;-72
2021/07/17 10:08:37;;;;;;;;;;;22.80;50.20;;;;;;1559741;76;1172;-73
2021/07/17 10:10:39;;;;;;;;;;;22.80;50.20;;;;;;1568129;76;795;-73
2021/07/17 10:12:42;;;;;;;;;;;22.70;50.20;;;;;;1567898;76;767;-74
2021/07/17 10:14:44;;;;;;;;;;;22.70;50.20;;;;;;1565630;76;763;-73
2021/07/17 10:16:48;;;;;;;;;;;22.70;50.20;;;;;;1561625;76;635;-71
2021/07/17 10:18:50;;;;;;;;;;;22.80;50.20;;;;;;1568065;75;1648;-73
2021/07/17 10:20:53;;;;;;;;;;;22.70;50.20;;;;;;1567956;76;748;-72
2021/07/17 10:22:55;;;;;;;;;;;22.70;50.20;;;;;;1567265;76;1035;-72
2021/07/17 10:24:57;;;;;;;;;;;22.80;50.20;;;;;;1561902;76;608;-73
2021/07/17 10:26:59;;;;;;;;;;;22.80;50.30;;;;;;1568095;76;1954;-72
2021/07/17 10:29:08;;;;;;;;;;;22.70;50.20;;;;;;1568107;76;1180;-72
2021/07/17 10:31:09;;;;;;;;;;;22.70;50.20;;;;;;1568084;76;737;-73
2021/07/17 10:33:11;;;;;;;;;;;22.80;50.20;;;;;;1568012;76;787;-72
2021/07/17 10:35:13;;;;;;;;;;;22.80;50.20;;;;;;1554795;76;741;-72
2021/07/17 10:37:17;;;;;;;;;;;22.70;50.20;;;;;;1568122;76;784;-76
2021/07/17 10:39:20;;;;;;;;;;;22.80;50.20;;;;;;1564167;76;1147;-74
2021/07/17 10:41:22;;;;;;;;;;;22.80;50.20;;;;;;1567927;76;1174;-73
2021/07/17 10:43:24;;;;;;;;;;;22.80;50.20;;;;;;1564281;76;741;-72
2021/07/17 10:45:34;;;;;;;;;;;22.80;50.20;;;;;;1567954;76;816;-72
2021/07/17 10:47:38;;;;;;;;;;;22.80;50.20;;;;;;1567994;76;1895;-73
2021/07/17 10:49:44;;;;;;;;;;;22.70;50.20;;;;;;1567446;76;1228;-72
2021/07/17 10:51:52;;;;;;;;;;;22.80;50.20;;;;;;1567290;75;1819;-71
2021/07/17 10:53:50;;;;;;;;;;;22.70;50.20;;;;;;1562484;75;1490;-72
2021/07/17 10:55:52;;;;;;;;;;;22.70;50.20;;;;;;1567981;76;742;-73
2021/07/17 10:57:54;;;;;;;;;;;22.70;50.20;;;;;;1563531;76;668;-72
2021/07/17 10:59:56;;;;;;;;;;;22.70;50.20;;;;;;1568011;76;1124;-72
2021/07/17 11:02:02;;;;;;;;;;;22.80;50.20;;;;;;1567192;76;738;-74
2021/07/17 11:04:04;;;;;;;;;;;22.70;50.20;;;;;;1565814;76;675;-73
2021/07/17 11:06:24;;;;;;;;;;;22.80;50.20;;;;;;1548110;77;1946;-73
2021/07/17 11:08:34;;;;;;;;;;;22.70;50.10;;;;;;1557498;76;1129;-73
2021/07/17 11:10:44;;;;;;;;;;;22.70;50.20;;;;;;1567956;76;1808;-72
2021/07/17 11:12:47;;;;;;;;;;;22.70;50.20;;;;;;1566752;76;710;-73
2021/07/17 11:14:49;;;;;;;;;;;22.70;50.20;;;;;;1568118;76;781;-73
2021/07/17 11:16:51;;;;;;;;;;;22.70;50.20;;;;;;1568190;76;795;-74
2021/07/17 11:18:53;;;;;;;;;;;22.80;50.20;;;;;;1553740;76;1185;-72
2021/07/17 11:20:58;;;;;;;;;;;22.70;50.20;;;;;;1564430;76;840;-72
2021/07/17 11:23:06;;;;;;;;;;;22.80;50.20;;;;;;1564044;76;1707;-72
2021/07/17 11:25:08;;;;;;;;;;;22.80;50.20;;;;;;1557959;76;706;-72
2021/07/17 11:27:10;;;;;;;;;;;22.70;50.20;;;;;;1565357;74;1940;-74
2021/07/17 11:29:14;;;;;;;;;;;22.80;50.20;;;;;;1560367;76;1149;-73
2021/07/17 11:31:29;;;;;;;;;;;22.80;50.20;;;;;;1544114;74;1352;-73
2021/07/17 11:33:31;;;;;;;;;;;22.70;50.20;;;;;;1566614;74;727;-72
2021/07/17 11:35:36;;;;;;;;;;;22.80;50.20;;;;;;1567893;76;759;-73
2021/07/17 11:37:38;;;;;;;;;;;22.80;50.20;;;;;;1555324;76;836;-74
2021/07/17 11:39:41;;;;;;;;;;;22.70;50.20;;;;;;1551914;76;1125;-73
2021/07/17 11:41:43;;;;;;;;;;;22.80;50.20;;;;;;1561096;74;739;-72
2021/07/17 11:43:45;;;;;;;;;;;22.80;50.20;;;;;;1568092;76;768;-73
2021/07/17 11:45:47;;;;;;;;;;;22.80;50.20;;;;;;1548142;75;1047;-70
2021/07/17 11:47:49;;;;;;;;;;;22.80;50.20;;;;;;1560077;76;1941;-73
2021/07/17 11:49:54;;;;;;;;;;;22.80;50.10;;;;;;1568255;74;1108;-75
2021/07/17 11:51:58;;;;;;;;;;;22.80;50.20;;;;;;1568028;76;916;-72
2021/07/17 11:54:00;;;;;;;;;;;22.80;50.20;;;;;;1560362;76;658;-72
2021/07/17 11:56:02;;;;;;;;;;;22.80;50.20;;;;;;1549169;76;816;-72
2021/07/17 11:58:05;;;;;;;;;;;22.70;50.20;;;;;;1565725;76;801;-74
2021/07/17 12:00:08;;;;;;;;;;;22.70;50.20;;;;;;1567079;75;1628;-73
2021/07/17 12:02:17;;;;;;;;;;;22.80;50.20;;;;;;1567974;74;786;-73
2021/07/17 12:04:29;;;;;;;;;;;22.70;50.20;;;;;;1561146;76;785;-73
2021/07/17 12:06:32;;;;;;;;;;;22.80;50.20;;;;;;1568046;74;1924;-75
2021/07/17 12:08:34;;;;;;;;;;;22.80;50.20;;;;;;1565851;76;1160;-73
2021/07/17 12:10:36;;;;;;;;;;;22.70;50.20;;;;;;1568146;76;788;-72